sensor_id;sensor_type;location;lat;lon;timestamp;P1;durP1;ratioP1;P2;durP2;ratioP2
35644;SDS011;21764;52.042;6.830;2023-06-22T00:04:56;21.00;;;15.80;;
35644;SDS011;21764;52.042;6.830;2023-06-22T00:09:57;22.73;;;16.27;;
35644;SDS011;21764;52.042;6.830;2023-06-22T00:14:58;22.95;;;15.75;;
35644;SDS011;21764;52.042;6.830;2023-06-22T00:19:58;23.08;;;16.38;;
35644;SDS011;21764;52.042;6.830;2023-06-22T00:25:00;23.73;;;16.70;;
35644;SDS011;21764;52.042;6.830;2023-06-22T00:30:00;22.17;;;17.15;;
35644;SDS011;21764;52.042;6.830;2023-06-22T00:35:01;24.02;;;17.88;;
35644;SDS011;21764;52.042;6.830;2023-06-22T00:40:02;25.52;;;18.33;;
35644;SDS011;21764;52.042;6.830;2023-06-22T00:45:06;25.58;;;19.75;;
35644;SDS011;21764;52.042;6.830;2023-06-22T00:50:07;25.70;;;18.70;;
35644;SDS011;21764;52.042;6.830;2023-06-22T00:55:09;24.38;;;18.63;;
35644;SDS011;21764;52.042;6.830;2023-06-22T01:00:10;26.05;;;18.30;;
35644;SDS011;21764;52.042;6.830;2023-06-22T01:05:20;24.77;;;19.88;;
35644;SDS011;21764;52.042;6.830;2023-06-22T01:15:33;24.98;;;19.98;;
35644;SDS011;21764;52.042;6.830;2023-06-22T01:21:03;25.63;;;20.25;;
35644;SDS011;21764;52.042;6.830;2023-06-22T01:31:36;26.48;;;21.15;;
35644;SDS011;21764;52.042;6.830;2023-06-22T01:36:37;29.63;;;23.08;;
35644;SDS011;21764;52.042;6.830;2023-06-22T01:41:39;33.35;;;23.02;;
35644;SDS011;21764;52.042;6.830;2023-06-22T01:46:42;29.33;;;22.20;;
35644;SDS011;21764;52.042;6.830;2023-06-22T01:51:43;28.02;;;21.40;;
35644;SDS011;21764;52.042;6.830;2023-06-22T01:56:44;29.85;;;22.48;;
35644;SDS011;21764;52.042;6.830;2023-06-22T02:01:48;29.80;;;23.60;;
35644;SDS011;21764;52.042;6.830;2023-06-22T02:12:00;31.70;;;23.77;;
35644;SDS011;21764;52.042;6.830;2023-06-22T02:17:04;29.05;;;23.52;;
35644;SDS011;21764;52.042;6.830;2023-06-22T02:22:07;33.45;;;23.92;;
35644;SDS011;21764;52.042;6.830;2023-06-22T02:27:08;38.55;;;25.00;;
35644;SDS011;21764;52.042;6.830;2023-06-22T02:32:09;34.00;;;25.05;;
35644;SDS011;21764;52.042;6.830;2023-06-22T02:37:10;35.95;;;24.38;;
35644;SDS011;21764;52.042;6.830;2023-06-22T02:42:10;34.83;;;24.83;;
35644;SDS011;21764;52.042;6.830;2023-06-22T02:47:11;36.28;;;26.30;;
35644;SDS011;21764;52.042;6.830;2023-06-22T02:52:12;35.10;;;25.08;;
35644;SDS011;21764;52.042;6.830;2023-06-22T02:57:12;36.95;;;26.17;;
35644;SDS011;21764;52.042;6.830;2023-06-22T03:02:13;34.42;;;26.73;;
35644;SDS011;21764;52.042;6.830;2023-06-22T03:07:14;37.03;;;27.98;;
35644;SDS011;21764;52.042;6.830;2023-06-22T03:12:17;37.88;;;27.45;;
35644;SDS011;21764;52.042;6.830;2023-06-22T03:17:17;35.13;;;26.30;;
35644;SDS011;21764;52.042;6.830;2023-06-22T03:22:18;37.72;;;28.13;;
35644;SDS011;21764;52.042;6.830;2023-06-22T03:27:19;37.75;;;28.27;;
35644;SDS011;21764;52.042;6.830;2023-06-22T03:32:19;42.65;;;29.08;;
35644;SDS011;21764;52.042;6.830;2023-06-22T03:37:21;42.67;;;29.70;;
35644;SDS011;21764;52.042;6.830;2023-06-22T03:42:22;42.13;;;28.33;;
35644;SDS011;21764;52.042;6.830;2023-06-22T03:47:22;38.67;;;28.73;;
35644;SDS011;21764;52.042;6.830;2023-06-22T03:52:23;37.10;;;28.70;;
35644;SDS011;21764;52.042;6.830;2023-06-22T03:57:25;40.20;;;28.55;;
35644;SDS011;21764;52.042;6.830;2023-06-22T04:02:25;36.13;;;28.55;;
35644;SDS011;21764;52.042;6.830;2023-06-22T04:07:26;39.33;;;28.50;;
35644;SDS011;21764;52.042;6.830;2023-06-22T04:12:27;35.65;;;27.73;;
35644;SDS011;21764;52.042;6.830;2023-06-22T04:17:27;35.90;;;27.42;;
35644;SDS011;21764;52.042;6.830;2023-06-22T04:22:28;33.58;;;25.33;;
35644;SDS011;21764;52.042;6.830;2023-06-22T04:27:29;33.53;;;24.75;;
35644;SDS011;21764;52.042;6.830;2023-06-22T04:32:29;28.08;;;23.02;;
35644;SDS011;21764;52.042;6.830;2023-06-22T04:37:30;28.77;;;21.60;;
35644;SDS011;21764;52.042;6.830;2023-06-22T04:42:31;30.58;;;22.45;;
35644;SDS011;21764;52.042;6.830;2023-06-22T04:47:33;33.65;;;23.13;;
35644;SDS011;21764;52.042;6.830;2023-06-22T04:52:34;29.38;;;22.80;;
35644;SDS011;21764;52.042;6.830;2023-06-22T04:57:35;39.35;;;24.48;;
35644;SDS011;21764;52.042;6.830;2023-06-22T05:02:39;31.55;;;22.95;;
35644;SDS011;21764;52.042;6.830;2023-06-22T05:07:43;29.70;;;20.70;;
35644;SDS011;21764;52.042;6.830;2023-06-22T05:12:48;26.08;;;19.25;;
35644;SDS011;21764;52.042;6.830;2023-06-22T05:17:48;27.23;;;18.70;;
35644;SDS011;21764;52.042;6.830;2023-06-22T05:22:49;21.33;;;17.38;;
35644;SDS011;21764;52.042;6.830;2023-06-22T05:27:49;23.25;;;17.67;;
35644;SDS011;21764;52.042;6.830;2023-06-22T05:32:51;21.27;;;17.00;;
35644;SDS011;21764;52.042;6.830;2023-06-22T05:37:52;23.02;;;16.02;;
35644;SDS011;21764;52.042;6.830;2023-06-22T05:42:53;23.48;;;16.08;;
35644;SDS011;21764;52.042;6.830;2023-06-22T05:47:54;19.80;;;15.25;;
35644;SDS011;21764;52.042;6.830;2023-06-22T05:52:54;21.23;;;15.10;;
35644;SDS011;21764;52.042;6.830;2023-06-22T05:57:55;19.55;;;14.77;;
35644;SDS011;21764;52.042;6.830;2023-06-22T06:02:56;21.25;;;15.00;;
35644;SDS011;21764;52.042;6.830;2023-06-22T06:07:57;18.40;;;14.77;;
35644;SDS011;21764;52.042;6.830;2023-06-22T06:12:58;23.35;;;15.80;;
35644;SDS011;21764;52.042;6.830;2023-06-22T06:18:01;22.80;;;16.55;;
35644;SDS011;21764;52.042;6.830;2023-06-22T06:23:04;20.43;;;16.40;;
35644;SDS011;21764;52.042;6.830;2023-06-22T06:28:05;22.33;;;16.38;;
35644;SDS011;21764;52.042;6.830;2023-06-22T06:33:06;22.95;;;16.23;;
35644;SDS011;21764;52.042;6.830;2023-06-22T06:38:08;21.98;;;15.57;;
35644;SDS011;21764;52.042;6.830;2023-06-22T06:43:09;24.40;;;16.15;;
35644;SDS011;21764;52.042;6.830;2023-06-22T06:48:10;21.85;;;15.77;;
35644;SDS011;21764;52.042;6.830;2023-06-22T06:53:10;24.52;;;16.15;;
35644;SDS011;21764;52.042;6.830;2023-06-22T06:58:11;23.15;;;16.45;;
35644;SDS011;21764;52.042;6.830;2023-06-22T07:03:13;23.35;;;16.10;;
35644;SDS011;21764;52.042;6.830;2023-06-22T07:08:13;23.58;;;16.63;;
35644;SDS011;21764;52.042;6.830;2023-06-22T07:13:14;23.80;;;15.77;;
35644;SDS011;21764;52.042;6.830;2023-06-22T07:18:15;23.25;;;15.98;;
35644;SDS011;21764;52.042;6.830;2023-06-22T07:23:16;19.95;;;15.65;;
35644;SDS011;21764;52.042;6.830;2023-06-22T07:28:17;20.67;;;15.90;;
35644;SDS011;21764;52.042;6.830;2023-06-22T07:33:19;21.10;;;15.10;;
35644;SDS011;21764;52.042;6.830;2023-06-22T07:38:20;18.35;;;15.48;;
35644;SDS011;21764;52.042;6.830;2023-06-22T07:43:20;23.10;;;16.55;;
35644;SDS011;21764;52.042;6.830;2023-06-22T07:48:21;22.73;;;16.52;;
35644;SDS011;21764;52.042;6.830;2023-06-22T07:53:22;25.85;;;17.50;;
35644;SDS011;21764;52.042;6.830;2023-06-22T07:58:23;25.55;;;19.02;;
35644;SDS011;21764;52.042;6.830;2023-06-22T08:03:23;22.17;;;16.70;;
35644;SDS011;21764;52.042;6.830;2023-06-22T08:08:25;22.17;;;16.73;;
35644;SDS011;21764;52.042;6.830;2023-06-22T08:13:26;28.55;;;18.30;;
35644;SDS011;21764;52.042;6.830;2023-06-22T08:18:27;23.27;;;18.17;;
35644;SDS011;21764;52.042;6.830;2023-06-22T08:23:28;23.90;;;17.08;;
35644;SDS011;21764;52.042;6.830;2023-06-22T08:28:29;28.20;;;17.65;;
35644;SDS011;21764;52.042;6.830;2023-06-22T08:33:29;24.30;;;17.55;;
35644;SDS011;21764;52.042;6.830;2023-06-22T08:38:31;24.60;;;17.35;;
35644;SDS011;21764;52.042;6.830;2023-06-22T08:43:31;22.67;;;17.80;;
35644;SDS011;21764;52.042;6.830;2023-06-22T08:48:32;29.42;;;16.95;;
35644;SDS011;21764;52.042;6.830;2023-06-22T08:53:33;24.70;;;17.25;;
35644;SDS011;21764;52.042;6.830;2023-06-22T08:58:35;22.40;;;16.33;;
35644;SDS011;21764;52.042;6.830;2023-06-22T09:03:35;24.48;;;16.48;;
35644;SDS011;21764;52.042;6.830;2023-06-22T09:08:37;24.08;;;17.00;;
35644;SDS011;21764;52.042;6.830;2023-06-22T09:13:38;26.17;;;16.65;;
35644;SDS011;21764;52.042;6.830;2023-06-22T09:18:39;23.58;;;17.38;;
35644;SDS011;21764;52.042;6.830;2023-06-22T09:23:39;23.50;;;18.23;;
35644;SDS011;21764;52.042;6.830;2023-06-22T09:28:40;25.10;;;17.90;;
35644;SDS011;21764;52.042;6.830;2023-06-22T09:33:41;26.40;;;17.25;;
35644;SDS011;21764;52.042;6.830;2023-06-22T09:38:42;22.95;;;17.70;;
35644;SDS011;21764;52.042;6.830;2023-06-22T09:43:42;24.40;;;17.30;;
35644;SDS011;21764;52.042;6.830;2023-06-22T09:48:43;22.73;;;18.02;;
35644;SDS011;21764;52.042;6.830;2023-06-22T09:53:44;22.88;;;17.25;;
35644;SDS011;21764;52.042;6.830;2023-06-22T09:58:45;24.58;;;16.92;;
35644;SDS011;21764;52.042;6.830;2023-06-22T10:03:47;27.95;;;17.63;;
35644;SDS011;21764;52.042;6.830;2023-06-22T10:08:47;24.38;;;17.85;;
35644;SDS011;21764;52.042;6.830;2023-06-22T10:13:49;26.33;;;17.95;;
35644;SDS011;21764;52.042;6.830;2023-06-22T10:18:50;23.42;;;18.23;;
35644;SDS011;21764;52.042;6.830;2023-06-22T10:23:51;21.15;;;17.40;;
35644;SDS011;21764;52.042;6.830;2023-06-22T10:28:52;23.85;;;17.63;;
35644;SDS011;21764;52.042;6.830;2023-06-22T10:33:53;27.63;;;17.33;;
35644;SDS011;21764;52.042;6.830;2023-06-22T10:38:54;21.33;;;16.42;;
35644;SDS011;21764;52.042;6.830;2023-06-22T10:43:56;27.27;;;16.85;;
35644;SDS011;21764;52.042;6.830;2023-06-22T10:48:56;19.88;;;16.13;;
35644;SDS011;21764;52.042;6.830;2023-06-22T10:53:58;20.05;;;15.75;;
35644;SDS011;21764;52.042;6.830;2023-06-22T10:58:59;25.00;;;16.58;;
35644;SDS011;21764;52.042;6.830;2023-06-22T11:04:00;23.25;;;16.10;;
35644;SDS011;21764;52.042;6.830;2023-06-22T11:09:01;21.52;;;16.02;;
35644;SDS011;21764;52.042;6.830;2023-06-22T11:14:02;28.65;;;17.98;;
35644;SDS011;21764;52.042;6.830;2023-06-22T11:19:04;22.02;;;15.82;;
35644;SDS011;21764;52.042;6.830;2023-06-22T11:24:05;23.65;;;16.67;;
35644;SDS011;21764;52.042;6.830;2023-06-22T11:29:06;24.70;;;17.63;;
35644;SDS011;21764;52.042;6.830;2023-06-22T11:34:08;25.70;;;19.20;;
35644;SDS011;21764;52.042;6.830;2023-06-22T11:39:08;21.50;;;18.25;;
35644;SDS011;21764;52.042;6.830;2023-06-22T11:44:09;27.92;;;18.73;;
35644;SDS011;21764;52.042;6.830;2023-06-22T11:49:10;34.17;;;20.08;;
35644;SDS011;21764;52.042;6.830;2023-06-22T11:54:11;28.92;;;19.27;;
35644;SDS011;21764;52.042;6.830;2023-06-22T11:59:11;24.48;;;19.90;;
35644;SDS011;21764;52.042;6.830;2023-06-22T12:04:12;23.65;;;20.50;;
35644;SDS011;21764;52.042;6.830;2023-06-22T12:09:13;28.17;;;20.17;;
35644;SDS011;21764;52.042;6.830;2023-06-22T12:14:14;31.17;;;20.73;;
35644;SDS011;21764;52.042;6.830;2023-06-22T12:19:14;27.58;;;21.40;;
35644;SDS011;21764;52.042;6.830;2023-06-22T12:24:15;29.08;;;20.58;;
35644;SDS011;21764;52.042;6.830;2023-06-22T12:29:16;25.00;;;19.83;;
35644;SDS011;21764;52.042;6.830;2023-06-22T12:34:17;26.65;;;20.40;;
35644;SDS011;21764;52.042;6.830;2023-06-22T12:39:17;25.83;;;21.30;;
35644;SDS011;21764;52.042;6.830;2023-06-22T12:44:18;34.92;;;24.50;;
35644;SDS011;21764;52.042;6.830;2023-06-22T12:49:19;35.95;;;23.77;;
35644;SDS011;21764;52.042;6.830;2023-06-22T12:54:19;32.25;;;23.73;;
35644;SDS011;21764;52.042;6.830;2023-06-22T12:59:20;28.95;;;23.63;;
35644;SDS011;21764;52.042;6.830;2023-06-22T13:04:21;35.42;;;25.35;;
35644;SDS011;21764;52.042;6.830;2023-06-22T13:09:21;32.95;;;25.48;;
35644;SDS011;21764;52.042;6.830;2023-06-22T13:14:22;40.28;;;25.98;;
35644;SDS011;21764;52.042;6.830;2023-06-22T13:19:23;44.58;;;27.45;;
35644;SDS011;21764;52.042;6.830;2023-06-22T13:24:23;34.78;;;26.65;;
35644;SDS011;21764;52.042;6.830;2023-06-22T13:29:24;31.00;;;24.98;;
35644;SDS011;21764;52.042;6.830;2023-06-22T13:34:25;29.92;;;24.83;;
35644;SDS011;21764;52.042;6.830;2023-06-22T13:39:25;33.90;;;24.60;;
35644;SDS011;21764;52.042;6.830;2023-06-22T13:44:26;33.72;;;24.23;;
35644;SDS011;21764;52.042;6.830;2023-06-22T13:49:30;31.27;;;24.15;;
35644;SDS011;21764;52.042;6.830;2023-06-22T13:54:30;28.73;;;23.38;;
35644;SDS011;21764;52.042;6.830;2023-06-22T13:59:31;31.55;;;23.13;;
35644;SDS011;21764;52.042;6.830;2023-06-22T14:04:32;29.90;;;24.35;;
35644;SDS011;21764;52.042;6.830;2023-06-22T14:09:32;28.60;;;23.92;;
35644;SDS011;21764;52.042;6.830;2023-06-22T14:14:33;33.45;;;24.42;;
35644;SDS011;21764;52.042;6.830;2023-06-22T14:19:34;35.40;;;25.48;;
35644;SDS011;21764;52.042;6.830;2023-06-22T14:24:35;30.75;;;25.55;;
35644;SDS011;21764;52.042;6.830;2023-06-22T14:29:35;30.80;;;25.83;;
35644;SDS011;21764;52.042;6.830;2023-06-22T14:34:36;36.45;;;26.45;;
35644;SDS011;21764;52.042;6.830;2023-06-22T14:39:39;32.38;;;25.77;;
35644;SDS011;21764;52.042;6.830;2023-06-22T14:44:39;33.28;;;26.42;;
35644;SDS011;21764;52.042;6.830;2023-06-22T14:49:40;36.20;;;25.90;;
35644;SDS011;21764;52.042;6.830;2023-06-22T14:54:41;30.75;;;24.92;;
35644;SDS011;21764;52.042;6.830;2023-06-22T14:59:42;30.23;;;25.15;;
35644;SDS011;21764;52.042;6.830;2023-06-22T15:04:42;34.60;;;25.65;;
35644;SDS011;21764;52.042;6.830;2023-06-22T15:09:43;32.83;;;27.15;;
35644;SDS011;21764;52.042;6.830;2023-06-22T15:14:45;33.50;;;26.05;;
35644;SDS011;21764;52.042;6.830;2023-06-22T15:19:46;35.75;;;27.13;;
35644;SDS011;21764;52.042;6.830;2023-06-22T15:24:46;37.10;;;27.17;;
35644;SDS011;21764;52.042;6.830;2023-06-22T15:29:48;37.13;;;27.58;;
35644;SDS011;21764;52.042;6.830;2023-06-22T15:34:49;35.25;;;26.95;;
35644;SDS011;21764;52.042;6.830;2023-06-22T15:39:53;33.45;;;27.00;;
35644;SDS011;21764;52.042;6.830;2023-06-22T15:44:56;33.83;;;25.58;;
35644;SDS011;21764;52.042;6.830;2023-06-22T15:49:56;38.20;;;27.23;;
35644;SDS011;21764;52.042;6.830;2023-06-22T15:54:57;34.35;;;26.63;;
35644;SDS011;21764;52.042;6.830;2023-06-22T16:00:00;36.28;;;27.17;;
35644;SDS011;21764;52.042;6.830;2023-06-22T16:05:01;30.83;;;25.88;;
35644;SDS011;21764;52.042;6.830;2023-06-22T16:10:03;30.95;;;25.58;;
35644;SDS011;21764;52.042;6.830;2023-06-22T16:15:05;33.30;;;26.08;;
35644;SDS011;21764;52.042;6.830;2023-06-22T16:20:06;35.92;;;27.35;;
35644;SDS011;21764;52.042;6.830;2023-06-22T16:25:08;36.05;;;26.88;;
35644;SDS011;21764;52.042;6.830;2023-06-22T16:30:08;36.30;;;27.08;;
35644;SDS011;21764;52.042;6.830;2023-06-22T16:35:10;37.15;;;28.48;;
35644;SDS011;21764;52.042;6.830;2023-06-22T16:40:11;32.88;;;26.75;;
35644;SDS011;21764;52.042;6.830;2023-06-22T16:45:15;38.35;;;27.75;;
35644;SDS011;21764;52.042;6.830;2023-06-22T16:50:16;37.78;;;27.55;;
35644;SDS011;21764;52.042;6.830;2023-06-22T16:55:17;41.47;;;28.75;;
35644;SDS011;21764;52.042;6.830;2023-06-22T17:03:09;44.45;;;28.38;;
35644;SDS011;21764;52.042;6.830;2023-06-22T17:08:13;40.78;;;31.30;;
35644;SDS011;21764;52.042;6.830;2023-06-22T17:13:16;47.40;;;33.35;;
35644;SDS011;21764;52.042;6.830;2023-06-22T17:18:17;54.63;;;34.35;;
35644;SDS011;21764;52.042;6.830;2023-06-22T17:23:19;41.95;;;33.83;;
35644;SDS011;21764;52.042;6.830;2023-06-22T17:28:20;53.15;;;35.72;;
35644;SDS011;21764;52.042;6.830;2023-06-22T17:33:21;53.13;;;37.45;;
35644;SDS011;21764;52.042;6.830;2023-06-22T17:38:23;57.90;;;43.65;;
35644;SDS011;21764;52.042;6.830;2023-06-22T17:43:25;59.97;;;45.30;;
35644;SDS011;21764;52.042;6.830;2023-06-22T17:48:25;59.80;;;46.88;;
35644;SDS011;21764;52.042;6.830;2023-06-22T17:53:31;69.10;;;50.63;;
35644;SDS011;21764;52.042;6.830;2023-06-22T17:58:31;62.38;;;46.42;;
35644;SDS011;21764;52.042;6.830;2023-06-22T18:03:32;62.25;;;46.08;;
35644;SDS011;21764;52.042;6.830;2023-06-22T18:08:36;54.33;;;43.17;;
35644;SDS011;21764;52.042;6.830;2023-06-22T18:13:37;47.80;;;38.13;;
35644;SDS011;21764;52.042;6.830;2023-06-22T18:18:40;38.28;;;30.88;;
35644;SDS011;21764;52.042;6.830;2023-06-22T18:23:41;36.53;;;28.40;;
35644;SDS011;21764;52.042;6.830;2023-06-22T18:28:43;32.42;;;26.45;;
35644;SDS011;21764;52.042;6.830;2023-06-22T18:33:44;31.50;;;24.63;;
35644;SDS011;21764;52.042;6.830;2023-06-22T18:38:46;32.13;;;24.65;;
35644;SDS011;21764;52.042;6.830;2023-06-22T18:43:51;29.67;;;24.60;;
35644;SDS011;21764;52.042;6.830;2023-06-22T18:48:53;28.05;;;22.15;;
35644;SDS011;21764;52.042;6.830;2023-06-22T18:54:07;29.40;;;21.23;;
35644;SDS011;21764;52.042;6.830;2023-06-22T18:59:11;30.83;;;21.50;;
35644;SDS011;21764;52.042;6.830;2023-06-22T19:04:15;28.67;;;21.43;;
35644;SDS011;21764;52.042;6.830;2023-06-22T19:09:16;28.35;;;19.98;;
35644;SDS011;21764;52.042;6.830;2023-06-22T19:14:19;27.25;;;20.33;;
35644;SDS011;21764;52.042;6.830;2023-06-22T19:19:24;25.90;;;19.42;;
35644;SDS011;21764;52.042;6.830;2023-06-22T19:24:28;29.67;;;20.20;;
35644;SDS011;21764;52.042;6.830;2023-06-22T19:29:30;25.60;;;20.50;;
35644;SDS011;21764;52.042;6.830;2023-06-22T19:34:34;27.60;;;20.40;;
35644;SDS011;21764;52.042;6.830;2023-06-22T19:39:35;25.47;;;19.73;;
35644;SDS011;21764;52.042;6.830;2023-06-22T19:44:39;31.88;;;22.02;;
35644;SDS011;21764;52.042;6.830;2023-06-22T19:49:39;32.03;;;23.02;;
35644;SDS011;21764;52.042;6.830;2023-06-22T19:54:40;28.58;;;21.42;;
35644;SDS011;21764;52.042;6.830;2023-06-22T19:59:40;24.42;;;19.75;;
35644;SDS011;21764;52.042;6.830;2023-06-22T20:04:44;29.55;;;18.80;;
35644;SDS011;21764;52.042;6.830;2023-06-22T20:09:45;29.17;;;17.98;;
35644;SDS011;21764;52.042;6.830;2023-06-22T20:14:46;27.08;;;17.13;;
35644;SDS011;21764;52.042;6.830;2023-06-22T20:19:52;22.23;;;16.80;;
35644;SDS011;21764;52.042;6.830;2023-06-22T20:24:53;25.67;;;17.60;;
35644;SDS011;21764;52.042;6.830;2023-06-22T20:29:54;28.20;;;18.67;;
35644;SDS011;21764;52.042;6.830;2023-06-22T20:34:55;24.13;;;19.40;;
35644;SDS011;21764;52.042;6.830;2023-06-22T20:39:55;28.85;;;20.58;;
35644;SDS011;21764;52.042;6.830;2023-06-22T20:44:56;26.83;;;19.98;;
35644;SDS011;21764;52.042;6.830;2023-06-22T20:49:57;25.67;;;18.90;;
35644;SDS011;21764;52.042;6.830;2023-06-22T20:54:59;25.00;;;17.17;;
35644;SDS011;21764;52.042;6.830;2023-06-22T21:00:02;18.85;;;16.10;;
35644;SDS011;21764;52.042;6.830;2023-06-22T21:05:07;20.25;;;15.05;;
35644;SDS011;21764;52.042;6.830;2023-06-22T21:10:07;20.15;;;15.98;;
35644;SDS011;21764;52.042;6.830;2023-06-22T21:15:08;24.58;;;18.25;;
35644;SDS011;21764;52.042;6.830;2023-06-22T21:20:09;21.70;;;17.17;;
35644;SDS011;21764;52.042;6.830;2023-06-22T21:25:11;22.98;;;16.08;;
35644;SDS011;21764;52.042;6.830;2023-06-22T21:30:13;22.65;;;16.90;;
35644;SDS011;21764;52.042;6.830;2023-06-22T21:35:15;23.63;;;17.02;;
35644;SDS011;21764;52.042;6.830;2023-06-22T21:40:16;22.15;;;16.77;;
35644;SDS011;21764;52.042;6.830;2023-06-22T21:45:16;19.67;;;15.88;;
35644;SDS011;21764;52.042;6.830;2023-06-22T21:50:17;19.00;;;14.88;;
35644;SDS011;21764;52.042;6.830;2023-06-22T21:55:19;20.08;;;15.05;;
35644;SDS011;21764;52.042;6.830;2023-06-22T22:00:20;18.63;;;15.30;;
35644;SDS011;21764;52.042;6.830;2023-06-22T22:05:21;21.35;;;15.25;;
35644;SDS011;21764;52.042;6.830;2023-06-22T22:10:22;19.73;;;14.95;;
35644;SDS011;21764;52.042;6.830;2023-06-22T22:15:23;21.90;;;15.65;;
35644;SDS011;21764;52.042;6.830;2023-06-22T22:20:24;22.95;;;15.30;;
35644;SDS011;21764;52.042;6.830;2023-06-22T22:25:24;20.35;;;14.52;;
35644;SDS011;21764;52.042;6.830;2023-06-22T22:30:25;20.33;;;14.77;;
35644;SDS011;21764;52.042;6.830;2023-06-22T22:35:26;21.48;;;14.52;;
35644;SDS011;21764;52.042;6.830;2023-06-22T22:40:26;17.50;;;12.35;;
35644;SDS011;21764;52.042;6.830;2023-06-22T22:45:27;19.08;;;13.18;;
35644;SDS011;21764;52.042;6.830;2023-06-22T22:50:28;15.05;;;12.07;;
35644;SDS011;21764;52.042;6.830;2023-06-22T22:55:29;20.45;;;12.80;;
35644;SDS011;21764;52.042;6.830;2023-06-22T23:00:31;16.73;;;11.85;;
35644;SDS011;21764;52.042;6.830;2023-06-22T23:05:32;17.25;;;12.25;;
35644;SDS011;21764;52.042;6.830;2023-06-22T23:10:33;18.25;;;12.10;;
35644;SDS011;21764;52.042;6.830;2023-06-22T23:15:34;19.02;;;11.68;;
35644;SDS011;21764;52.042;6.830;2023-06-22T23:20:35;18.85;;;11.80;;
35644;SDS011;21764;52.042;6.830;2023-06-22T23:25:36;18.30;;;11.15;;
35644;SDS011;21764;52.042;6.830;2023-06-22T23:30:38;22.05;;;12.55;;
35644;SDS011;21764;52.042;6.830;2023-06-22T23:35:39;20.08;;;13.05;;
35644;SDS011;21764;52.042;6.830;2023-06-22T23:40:40;18.85;;;13.30;;
35644;SDS011;21764;52.042;6.830;2023-06-22T23:45:41;19.90;;;13.38;;
35644;SDS011;21764;52.042;6.830;2023-06-22T23:50:42;22.67;;;15.15;;
35644;SDS011;21764;52.042;6.830;2023-06-22T23:55:42;28.05;;;16.10;;
